sensor_id;sensor_type;location;lat;lon;timestamp;temperature;humidity
51613;DHT22;37694;51.748;14.326;2023-04-09T00:01:09;23.30;42.00
51613;DHT22;37694;51.748;14.326;2023-04-09T00:03:36;23.30;42.10
51613;DHT22;37694;51.748;14.326;2023-04-09T00:06:02;23.30;42.00
51613;DHT22;37694;51.748;14.326;2023-04-09T00:08:28;23.30;42.10
51613;DHT22;37694;51.748;14.326;2023-04-09T00:10:54;23.30;41.90
51613;DHT22;37694;51.748;14.326;2023-04-09T00:13:20;23.30;42.00
51613;DHT22;37694;51.748;14.326;2023-04-09T00:15:46;23.30;41.90
51613;DHT22;37694;51.748;14.326;2023-04-09T00:18:13;23.20;41.90
51613;DHT22;37694;51.748;14.326;2023-04-09T00:20:39;23.20;41.90
51613;DHT22;37694;51.748;14.326;2023-04-09T00:23:05;23.20;41.90
51613;DHT22;37694;51.748;14.326;2023-04-09T00:25:31;23.20;41.90
51613;DHT22;37694;51.748;14.326;2023-04-09T00:27:56;23.20;42.00
51613;DHT22;37694;51.748;14.326;2023-04-09T00:30:23;23.10;42.00
51613;DHT22;37694;51.748;14.326;2023-04-09T00:32:49;23.10;42.10
51613;DHT22;37694;51.748;14.326;2023-04-09T00:35:15;23.10;42.00
51613;DHT22;37694;51.748;14.326;2023-04-09T00:37:42;23.10;42.10
51613;DHT22;37694;51.748;14.326;2023-04-09T00:40:08;23.00;42.10
51613;DHT22;37694;51.748;14.326;2023-04-09T00:42:35;23.00;42.10
51613;DHT22;37694;51.748;14.326;2023-04-09T00:45:02;23.00;42.10
51613;DHT22;37694;51.748;14.326;2023-04-09T00:47:28;23.00;42.20
51613;DHT22;37694;51.748;14.326;2023-04-09T00:49:55;23.00;42.10
51613;DHT22;37694;51.748;14.326;2023-04-09T00:52:22;23.00;42.10
51613;DHT22;37694;51.748;14.326;2023-04-09T00:54:49;23.00;42.10
51613;DHT22;37694;51.748;14.326;2023-04-09T00:57:15;22.90;42.10
51613;DHT22;37694;51.748;14.326;2023-04-09T00:59:44;22.90;42.10
51613;DHT22;37694;51.748;14.326;2023-04-09T01:02:10;22.90;42.10
51613;DHT22;37694;51.748;14.326;2023-04-09T01:04:37;22.90;42.30
51613;DHT22;37694;51.748;14.326;2023-04-09T01:07:12;22.90;42.10
51613;DHT22;37694;51.748;14.326;2023-04-09T01:09:47;22.90;42.40
51613;DHT22;37694;51.748;14.326;2023-04-09T01:12:32;22.80;42.20
51613;DHT22;37694;51.748;14.326;2023-04-09T01:15:14;22.90;42.40
51613;DHT22;37694;51.748;14.326;2023-04-09T01:20:42;22.80;42.10
51613;DHT22;37694;51.748;14.326;2023-04-09T01:26:17;22.90;42.00
51613;DHT22;37694;51.748;14.326;2023-04-09T01:28:48;22.80;41.90
51613;DHT22;37694;51.748;14.326;2023-04-09T01:31:17;22.80;41.90
51613;DHT22;37694;51.748;14.326;2023-04-09T01:33:44;22.80;41.90
51613;DHT22;37694;51.748;14.326;2023-04-09T01:36:10;22.80;41.90
51613;DHT22;37694;51.748;14.326;2023-04-09T01:38:39;22.80;41.80
51613;DHT22;37694;51.748;14.326;2023-04-09T01:41:06;22.80;41.80
51613;DHT22;37694;51.748;14.326;2023-04-09T01:43:33;22.80;41.80
51613;DHT22;37694;51.748;14.326;2023-04-09T01:46:00;22.70;41.70
51613;DHT22;37694;51.748;14.326;2023-04-09T01:48:29;22.70;41.80
51613;DHT22;37694;51.748;14.326;2023-04-09T01:50:57;22.70;41.80
51613;DHT22;37694;51.748;14.326;2023-04-09T01:53:23;22.70;41.80
51613;DHT22;37694;51.748;14.326;2023-04-09T01:55:53;22.70;41.80
51613;DHT22;37694;51.748;14.326;2023-04-09T01:58:20;22.70;41.80
51613;DHT22;37694;51.748;14.326;2023-04-09T02:00:47;22.70;41.70
51613;DHT22;37694;51.748;14.326;2023-04-09T02:08:33;22.70;41.60
51613;DHT22;37694;51.748;14.326;2023-04-09T02:11:04;22.60;41.70
51613;DHT22;37694;51.748;14.326;2023-04-09T02:13:31;22.60;41.70
51613;DHT22;37694;51.748;14.326;2023-04-09T02:15:59;22.60;41.80
51613;DHT22;37694;51.748;14.326;2023-04-09T02:18:27;22.60;41.70
51613;DHT22;37694;51.748;14.326;2023-04-09T02:20:57;22.60;41.80
51613;DHT22;37694;51.748;14.326;2023-04-09T02:23:23;22.60;41.80
51613;DHT22;37694;51.748;14.326;2023-04-09T02:25:50;22.60;41.90
51613;DHT22;37694;51.748;14.326;2023-04-09T02:28:16;22.60;41.90
51613;DHT22;37694;51.748;14.326;2023-04-09T02:30:42;22.60;41.90
51613;DHT22;37694;51.748;14.326;2023-04-09T02:33:07;22.50;41.80
51613;DHT22;37694;51.748;14.326;2023-04-09T02:35:33;22.50;42.00
51613;DHT22;37694;51.748;14.326;2023-04-09T02:37:59;22.50;41.90
51613;DHT22;37694;51.748;14.326;2023-04-09T02:40:24;22.50;42.00
51613;DHT22;37694;51.748;14.326;2023-04-09T02:42:53;22.50;42.00
51613;DHT22;37694;51.748;14.326;2023-04-09T02:45:19;22.50;42.00
51613;DHT22;37694;51.748;14.326;2023-04-09T02:47:45;22.50;42.00
51613;DHT22;37694;51.748;14.326;2023-04-09T02:50:10;22.50;41.90
51613;DHT22;37694;51.748;14.326;2023-04-09T02:52:36;22.40;42.10
51613;DHT22;37694;51.748;14.326;2023-04-09T02:55:02;22.40;42.00
51613;DHT22;37694;51.748;14.326;2023-04-09T02:57:28;22.40;42.00
51613;DHT22;37694;51.748;14.326;2023-04-09T02:59:54;22.40;42.00
51613;DHT22;37694;51.748;14.326;2023-04-09T03:02:19;22.40;42.10
51613;DHT22;37694;51.748;14.326;2023-04-09T03:04:45;22.40;42.10
51613;DHT22;37694;51.748;14.326;2023-04-09T03:07:11;22.40;42.00
51613;DHT22;37694;51.748;14.326;2023-04-09T03:09:36;22.40;42.00
51613;DHT22;37694;51.748;14.326;2023-04-09T03:12:02;22.30;42.10
51613;DHT22;37694;51.748;14.326;2023-04-09T03:14:28;22.30;42.10
51613;DHT22;37694;51.748;14.326;2023-04-09T03:16:54;22.30;42.20
51613;DHT22;37694;51.748;14.326;2023-04-09T03:19:19;22.30;42.20
51613;DHT22;37694;51.748;14.326;2023-04-09T03:21:45;22.30;42.10
51613;DHT22;37694;51.748;14.326;2023-04-09T03:24:13;22.30;42.20
51613;DHT22;37694;51.748;14.326;2023-04-09T03:26:39;22.30;42.00
51613;DHT22;37694;51.748;14.326;2023-04-09T03:29:05;22.30;41.90
51613;DHT22;37694;51.748;14.326;2023-04-09T03:31:31;22.30;41.90
51613;DHT22;37694;51.748;14.326;2023-04-09T03:33:57;22.30;41.90
51613;DHT22;37694;51.748;14.326;2023-04-09T03:36:22;22.30;42.80
51613;DHT22;37694;51.748;14.326;2023-04-09T03:38:48;22.30;41.90
51613;DHT22;37694;51.748;14.326;2023-04-09T03:41:14;22.30;42.00
51613;DHT22;37694;51.748;14.326;2023-04-09T03:43:40;22.30;41.90
51613;DHT22;37694;51.748;14.326;2023-04-09T03:46:15;22.30;41.90
51613;DHT22;37694;51.748;14.326;2023-04-09T03:48:41;22.30;41.90
51613;DHT22;37694;51.748;14.326;2023-04-09T03:51:16;22.20;41.90
51613;DHT22;37694;51.748;14.326;2023-04-09T03:53:42;22.30;41.90
51613;DHT22;37694;51.748;14.326;2023-04-09T03:56:09;22.20;41.90
51613;DHT22;37694;51.748;14.326;2023-04-09T03:58:35;22.20;41.90
51613;DHT22;37694;51.748;14.326;2023-04-09T04:01:00;22.20;41.90
51613;DHT22;37694;51.748;14.326;2023-04-09T04:03:26;22.20;41.90
51613;DHT22;37694;51.748;14.326;2023-04-09T04:05:52;22.10;41.80
51613;DHT22;37694;51.748;14.326;2023-04-09T04:08:18;22.10;41.80
51613;DHT22;37694;51.748;14.326;2023-04-09T04:10:43;22.10;41.80
51613;DHT22;37694;51.748;14.326;2023-04-09T04:13:09;22.10;41.80
51613;DHT22;37694;51.748;14.326;2023-04-09T04:15:41;22.10;41.70
51613;DHT22;37694;51.748;14.326;2023-04-09T04:18:08;22.10;41.70
51613;DHT22;37694;51.748;14.326;2023-04-09T04:20:34;22.10;41.80
51613;DHT22;37694;51.748;14.326;2023-04-09T04:23:00;22.10;41.70
51613;DHT22;37694;51.748;14.326;2023-04-09T04:25:26;22.10;41.70
51613;DHT22;37694;51.748;14.326;2023-04-09T04:27:51;22.10;41.70
51613;DHT22;37694;51.748;14.326;2023-04-09T04:30:17;22.00;41.60
51613;DHT22;37694;51.748;14.326;2023-04-09T04:32:43;22.10;42.10
51613;DHT22;37694;51.748;14.326;2023-04-09T04:35:08;22.00;41.80
51613;DHT22;37694;51.748;14.326;2023-04-09T04:37:34;22.10;41.90
51613;DHT22;37694;51.748;14.326;2023-04-09T04:40:01;22.00;41.90
51613;DHT22;37694;51.748;14.326;2023-04-09T04:42:27;22.00;42.00
51613;DHT22;37694;51.748;14.326;2023-04-09T04:44:52;22.00;42.00
51613;DHT22;37694;51.748;14.326;2023-04-09T04:47:18;22.00;42.00
51613;DHT22;37694;51.748;14.326;2023-04-09T04:49:44;22.00;42.00
51613;DHT22;37694;51.748;14.326;2023-04-09T04:52:09;22.00;42.20
51613;DHT22;37694;51.748;14.326;2023-04-09T04:54:35;22.00;42.10
51613;DHT22;37694;51.748;14.326;2023-04-09T04:57:01;22.00;42.10
51613;DHT22;37694;51.748;14.326;2023-04-09T04:59:27;22.00;42.10
51613;DHT22;37694;51.748;14.326;2023-04-09T05:01:52;22.00;42.00
51613;DHT22;37694;51.748;14.326;2023-04-09T05:04:18;22.00;42.00
51613;DHT22;37694;51.748;14.326;2023-04-09T05:06:44;22.00;42.00
51613;DHT22;37694;51.748;14.326;2023-04-09T05:09:10;22.00;42.10
51613;DHT22;37694;51.748;14.326;2023-04-09T05:11:35;22.00;42.10
51613;DHT22;37694;51.748;14.326;2023-04-09T05:14:01;22.00;43.10
51613;DHT22;37694;51.748;14.326;2023-04-09T05:16:27;22.00;42.50
51613;DHT22;37694;51.748;14.326;2023-04-09T05:18:52;22.00;42.70
51613;DHT22;37694;51.748;14.326;2023-04-09T05:21:18;22.00;43.00
51613;DHT22;37694;51.748;14.326;2023-04-09T05:23:43;22.00;43.00
51613;DHT22;37694;51.748;14.326;2023-04-09T05:26:09;22.00;43.30
51613;DHT22;37694;51.748;14.326;2023-04-09T05:28:35;22.00;43.30
51613;DHT22;37694;51.748;14.326;2023-04-09T05:31:00;22.00;43.20
51613;DHT22;37694;51.748;14.326;2023-04-09T05:33:26;22.00;43.00
51613;DHT22;37694;51.748;14.326;2023-04-09T05:35:52;22.00;43.00
51613;DHT22;37694;51.748;14.326;2023-04-09T05:38:17;22.10;43.20
51613;DHT22;37694;51.748;14.326;2023-04-09T05:40:43;22.10;43.20
51613;DHT22;37694;51.748;14.326;2023-04-09T05:43:10;22.20;43.10
51613;DHT22;37694;51.748;14.326;2023-04-09T05:45:36;22.30;43.20
51613;DHT22;37694;51.748;14.326;2023-04-09T05:48:02;22.40;42.90
51613;DHT22;37694;51.748;14.326;2023-04-09T05:50:27;22.50;42.70
51613;DHT22;37694;51.748;14.326;2023-04-09T05:52:53;22.60;42.60
51613;DHT22;37694;51.748;14.326;2023-04-09T05:55:19;22.60;42.40
51613;DHT22;37694;51.748;14.326;2023-04-09T05:57:44;22.70;42.20
51613;DHT22;37694;51.748;14.326;2023-04-09T06:00:11;22.90;42.20
51613;DHT22;37694;51.748;14.326;2023-04-09T06:02:36;22.90;42.10
51613;DHT22;37694;51.748;14.326;2023-04-09T06:05:02;23.00;41.90
51613;DHT22;37694;51.748;14.326;2023-04-09T06:07:28;23.10;41.80
51613;DHT22;37694;51.748;14.326;2023-04-09T06:09:54;23.20;41.70
51613;DHT22;37694;51.748;14.326;2023-04-09T06:12:20;23.30;41.70
51613;DHT22;37694;51.748;14.326;2023-04-09T06:14:49;23.30;41.50
51613;DHT22;37694;51.748;14.326;2023-04-09T06:17:14;23.40;41.50
51613;DHT22;37694;51.748;14.326;2023-04-09T06:19:40;23.50;41.40
51613;DHT22;37694;51.748;14.326;2023-04-09T06:22:09;23.60;41.40
51613;DHT22;37694;51.748;14.326;2023-04-09T06:24:35;23.60;41.20
51613;DHT22;37694;51.748;14.326;2023-04-09T06:27:01;23.70;41.10
51613;DHT22;37694;51.748;14.326;2023-04-09T06:29:27;23.80;41.00
51613;DHT22;37694;51.748;14.326;2023-04-09T06:31:53;23.90;40.90
51613;DHT22;37694;51.748;14.326;2023-04-09T06:34:18;23.90;40.90
51613;DHT22;37694;51.748;14.326;2023-04-09T06:36:44;24.00;40.70
51613;DHT22;37694;51.748;14.326;2023-04-09T06:39:10;24.10;40.70
51613;DHT22;37694;51.748;14.326;2023-04-09T06:41:36;24.10;40.60
51613;DHT22;37694;51.748;14.326;2023-04-09T06:44:01;24.10;40.60
51613;DHT22;37694;51.748;14.326;2023-04-09T06:46:27;24.10;40.80
51613;DHT22;37694;51.748;14.326;2023-04-09T06:48:53;24.10;40.90
51613;DHT22;37694;51.748;14.326;2023-04-09T06:51:19;24.20;40.80
51613;DHT22;37694;51.748;14.326;2023-04-09T06:53:44;24.20;40.70
51613;DHT22;37694;51.748;14.326;2023-04-09T06:56:12;24.20;40.70
51613;DHT22;37694;51.748;14.326;2023-04-09T06:58:38;24.30;40.60
51613;DHT22;37694;51.748;14.326;2023-04-09T07:01:04;24.30;40.60
51613;DHT22;37694;51.748;14.326;2023-04-09T07:03:30;24.30;40.50
51613;DHT22;37694;51.748;14.326;2023-04-09T07:05:56;24.30;40.50
51613;DHT22;37694;51.748;14.326;2023-04-09T07:08:22;24.30;40.50
51613;DHT22;37694;51.748;14.326;2023-04-09T07:10:48;24.30;40.60
51613;DHT22;37694;51.748;14.326;2023-04-09T07:13:14;24.30;40.80
51613;DHT22;37694;51.748;14.326;2023-04-09T07:15:39;24.30;40.90
51613;DHT22;37694;51.748;14.326;2023-04-09T07:18:05;24.30;41.00
51613;DHT22;37694;51.748;14.326;2023-04-09T07:20:31;24.30;40.80
51613;DHT22;37694;51.748;14.326;2023-04-09T07:22:58;24.30;41.30
51613;DHT22;37694;51.748;14.326;2023-04-09T07:25:24;24.40;41.30
51613;DHT22;37694;51.748;14.326;2023-04-09T07:27:50;24.40;41.30
51613;DHT22;37694;51.748;14.326;2023-04-09T07:30:17;24.30;40.50
51613;DHT22;37694;51.748;14.326;2023-04-09T07:32:42;24.30;40.50
51613;DHT22;37694;51.748;14.326;2023-04-09T07:35:08;24.30;40.70
51613;DHT22;37694;51.748;14.326;2023-04-09T07:37:34;24.30;40.80
51613;DHT22;37694;51.748;14.326;2023-04-09T07:40:01;24.30;41.10
51613;DHT22;37694;51.748;14.326;2023-04-09T07:42:28;24.30;41.30
51613;DHT22;37694;51.748;14.326;2023-04-09T07:44:54;24.30;41.10
51613;DHT22;37694;51.748;14.326;2023-04-09T07:47:21;24.30;40.90
51613;DHT22;37694;51.748;14.326;2023-04-09T07:49:47;24.30;40.90
51613;DHT22;37694;51.748;14.326;2023-04-09T07:52:13;24.30;41.10
51613;DHT22;37694;51.748;14.326;2023-04-09T07:54:39;24.30;41.20
51613;DHT22;37694;51.748;14.326;2023-04-09T07:57:05;24.30;42.20
51613;DHT22;37694;51.748;14.326;2023-04-09T07:59:32;24.30;41.70
51613;DHT22;37694;51.748;14.326;2023-04-09T08:01:58;24.20;41.50
51613;DHT22;37694;51.748;14.326;2023-04-09T08:04:24;24.30;41.60
51613;DHT22;37694;51.748;14.326;2023-04-09T08:06:50;24.30;41.80
51613;DHT22;37694;51.748;14.326;2023-04-09T08:09:16;24.30;41.70
51613;DHT22;37694;51.748;14.326;2023-04-09T08:11:43;24.30;41.60
51613;DHT22;37694;51.748;14.326;2023-04-09T08:14:13;24.30;41.70
51613;DHT22;37694;51.748;14.326;2023-04-09T08:16:40;24.30;41.80
51613;DHT22;37694;51.748;14.326;2023-04-09T08:19:07;24.30;41.70
51613;DHT22;37694;51.748;14.326;2023-04-09T08:21:32;24.20;41.70
51613;DHT22;37694;51.748;14.326;2023-04-09T08:23:58;24.30;41.70
51613;DHT22;37694;51.748;14.326;2023-04-09T08:26:29;24.30;41.80
51613;DHT22;37694;51.748;14.326;2023-04-09T08:28:55;24.30;42.50
51613;DHT22;37694;51.748;14.326;2023-04-09T08:31:20;24.30;41.70
51613;DHT22;37694;51.748;14.326;2023-04-09T08:33:46;24.30;41.70
51613;DHT22;37694;51.748;14.326;2023-04-09T08:36:12;24.30;41.70
51613;DHT22;37694;51.748;14.326;2023-04-09T08:38:37;24.30;41.40
51613;DHT22;37694;51.748;14.326;2023-04-09T08:41:04;24.20;40.90
51613;DHT22;37694;51.748;14.326;2023-04-09T08:43:31;24.20;41.20
51613;DHT22;37694;51.748;14.326;2023-04-09T08:45:59;24.30;41.20
51613;DHT22;37694;51.748;14.326;2023-04-09T08:48:27;24.30;41.40
51613;DHT22;37694;51.748;14.326;2023-04-09T08:50:54;24.30;41.50
51613;DHT22;37694;51.748;14.326;2023-04-09T08:53:20;24.20;41.70
51613;DHT22;37694;51.748;14.326;2023-04-09T08:55:49;24.30;41.60
51613;DHT22;37694;51.748;14.326;2023-04-09T08:58:14;24.20;41.50
51613;DHT22;37694;51.748;14.326;2023-04-09T09:00:40;24.30;41.80
51613;DHT22;37694;51.748;14.326;2023-04-09T09:03:07;24.30;41.80
51613;DHT22;37694;51.748;14.326;2023-04-09T09:05:41;24.30;41.90
51613;DHT22;37694;51.748;14.326;2023-04-09T09:08:11;24.30;41.90
51613;DHT22;37694;51.748;14.326;2023-04-09T09:10:45;24.30;42.00
51613;DHT22;37694;51.748;14.326;2023-04-09T09:13:26;24.30;41.90
51613;DHT22;37694;51.748;14.326;2023-04-09T09:15:54;24.40;42.00
51613;DHT22;37694;51.748;14.326;2023-04-09T09:18:42;24.40;41.90
51613;DHT22;37694;51.748;14.326;2023-04-09T09:21:15;24.40;41.90
51613;DHT22;37694;51.748;14.326;2023-04-09T09:23:42;24.40;41.80
51613;DHT22;37694;51.748;14.326;2023-04-09T09:26:14;24.40;41.90
51613;DHT22;37694;51.748;14.326;2023-04-09T09:28:47;24.50;41.80
51613;DHT22;37694;51.748;14.326;2023-04-09T09:31:14;24.50;41.70
51613;DHT22;37694;51.748;14.326;2023-04-09T09:33:40;24.50;41.60
51613;DHT22;37694;51.748;14.326;2023-04-09T09:36:06;24.50;41.50
51613;DHT22;37694;51.748;14.326;2023-04-09T09:38:56;24.50;41.40
51613;DHT22;37694;51.748;14.326;2023-04-09T09:41:22;24.60;41.50
51613;DHT22;37694;51.748;14.326;2023-04-09T09:43:48;24.60;41.60
51613;DHT22;37694;51.748;14.326;2023-04-09T09:46:15;24.60;41.60
51613;DHT22;37694;51.748;14.326;2023-04-09T09:48:41;24.70;41.60
51613;DHT22;37694;51.748;14.326;2023-04-09T09:51:11;24.70;41.40
51613;DHT22;37694;51.748;14.326;2023-04-09T09:53:47;24.70;41.50
51613;DHT22;37694;51.748;14.326;2023-04-09T09:56:17;24.70;41.50
51613;DHT22;37694;51.748;14.326;2023-04-09T10:01:13;24.70;41.30
51613;DHT22;37694;51.748;14.326;2023-04-09T10:03:41;24.70;41.10
51613;DHT22;37694;51.748;14.326;2023-04-09T10:06:09;24.70;41.40
51613;DHT22;37694;51.748;14.326;2023-04-09T10:08:36;24.80;42.00
51613;DHT22;37694;51.748;14.326;2023-04-09T10:11:04;24.80;41.50
51613;DHT22;37694;51.748;14.326;2023-04-09T10:13:39;24.90;42.10
51613;DHT22;37694;51.748;14.326;2023-04-09T10:16:06;24.90;42.20
51613;DHT22;37694;51.748;14.326;2023-04-09T10:18:33;25.00;42.30
51613;DHT22;37694;51.748;14.326;2023-04-09T10:23:44;25.10;43.00
51613;DHT22;37694;51.748;14.326;2023-04-09T10:26:12;25.20;42.80
51613;DHT22;37694;51.748;14.326;2023-04-09T10:28:38;25.20;42.50
51613;DHT22;37694;51.748;14.326;2023-04-09T10:31:05;25.20;43.00
51613;DHT22;37694;51.748;14.326;2023-04-09T10:33:32;25.20;42.90
51613;DHT22;37694;51.748;14.326;2023-04-09T10:36:02;25.30;43.30
51613;DHT22;37694;51.748;14.326;2023-04-09T10:38:45;25.30;42.80
51613;DHT22;37694;51.748;14.326;2023-04-09T10:41:14;25.30;42.20
51613;DHT22;37694;51.748;14.326;2023-04-09T10:43:41;25.20;41.00
51613;DHT22;37694;51.748;14.326;2023-04-09T10:46:33;25.20;41.00
51613;DHT22;37694;51.748;14.326;2023-04-09T10:49:15;25.30;40.60
51613;DHT22;37694;51.748;14.326;2023-04-09T10:51:47;25.30;40.60
51613;DHT22;37694;51.748;14.326;2023-04-09T10:59:36;25.30;40.60
51613;DHT22;37694;51.748;14.326;2023-04-09T11:02:07;25.30;40.70
51613;DHT22;37694;51.748;14.326;2023-04-09T11:04:49;25.40;40.70
51613;DHT22;37694;51.748;14.326;2023-04-09T11:07:23;25.40;40.30
51613;DHT22;37694;51.748;14.326;2023-04-09T11:09:49;25.40;40.40
51613;DHT22;37694;51.748;14.326;2023-04-09T11:12:15;25.40;40.10
51613;DHT22;37694;51.748;14.326;2023-04-09T11:14:41;25.40;40.00
51613;DHT22;37694;51.748;14.326;2023-04-09T11:17:06;25.40;40.00
51613;DHT22;37694;51.748;14.326;2023-04-09T11:19:33;25.40;39.90
51613;DHT22;37694;51.748;14.326;2023-04-09T11:21:58;25.40;39.90
51613;DHT22;37694;51.748;14.326;2023-04-09T11:24:24;25.40;40.10
51613;DHT22;37694;51.748;14.326;2023-04-09T11:26:50;25.40;39.90
51613;DHT22;37694;51.748;14.326;2023-04-09T11:29:15;25.40;39.90
51613;DHT22;37694;51.748;14.326;2023-04-09T11:31:44;25.40;40.00
51613;DHT22;37694;51.748;14.326;2023-04-09T11:34:10;25.40;39.80
51613;DHT22;37694;51.748;14.326;2023-04-09T11:36:39;25.30;39.80
51613;DHT22;37694;51.748;14.326;2023-04-09T11:39:05;25.30;39.80
51613;DHT22;37694;51.748;14.326;2023-04-09T11:41:37;25.30;39.90
51613;DHT22;37694;51.748;14.326;2023-04-09T11:44:04;25.40;40.10
51613;DHT22;37694;51.748;14.326;2023-04-09T11:46:31;25.40;40.00
51613;DHT22;37694;51.748;14.326;2023-04-09T11:48:58;25.40;39.90
51613;DHT22;37694;51.748;14.326;2023-04-09T11:51:25;25.50;40.00
51613;DHT22;37694;51.748;14.326;2023-04-09T11:53:51;25.50;39.80
51613;DHT22;37694;51.748;14.326;2023-04-09T11:56:17;25.50;39.70
51613;DHT22;37694;51.748;14.326;2023-04-09T11:58:47;25.50;39.80
51613;DHT22;37694;51.748;14.326;2023-04-09T12:01:13;25.60;39.70
51613;DHT22;37694;51.748;14.326;2023-04-09T12:03:40;25.60;39.60
51613;DHT22;37694;51.748;14.326;2023-04-09T12:06:06;25.70;39.60
51613;DHT22;37694;51.748;14.326;2023-04-09T12:08:35;25.60;39.50
51613;DHT22;37694;51.748;14.326;2023-04-09T12:11:13;25.70;39.50
51613;DHT22;37694;51.748;14.326;2023-04-09T12:13:39;25.70;39.50
51613;DHT22;37694;51.748;14.326;2023-04-09T12:16:12;25.70;39.50
51613;DHT22;37694;51.748;14.326;2023-04-09T12:18:38;25.70;39.50
51613;DHT22;37694;51.748;14.326;2023-04-09T12:21:05;25.70;39.40
51613;DHT22;37694;51.748;14.326;2023-04-09T12:23:31;25.70;39.40
51613;DHT22;37694;51.748;14.326;2023-04-09T12:25:57;25.70;39.30
51613;DHT22;37694;51.748;14.326;2023-04-09T12:28:27;25.70;39.20
51613;DHT22;37694;51.748;14.326;2023-04-09T12:30:53;25.70;39.20
51613;DHT22;37694;51.748;14.326;2023-04-09T12:33:19;25.70;39.10
51613;DHT22;37694;51.748;14.326;2023-04-09T12:35:45;25.70;39.20
51613;DHT22;37694;51.748;14.326;2023-04-09T12:38:11;25.70;39.10
51613;DHT22;37694;51.748;14.326;2023-04-09T12:40:37;25.70;39.10
51613;DHT22;37694;51.748;14.326;2023-04-09T12:43:03;25.70;39.20
51613;DHT22;37694;51.748;14.326;2023-04-09T12:45:30;25.70;39.20
51613;DHT22;37694;51.748;14.326;2023-04-09T12:47:56;25.70;39.00
51613;DHT22;37694;51.748;14.326;2023-04-09T12:50:22;25.70;39.00
51613;DHT22;37694;51.748;14.326;2023-04-09T12:52:48;25.70;39.20
51613;DHT22;37694;51.748;14.326;2023-04-09T12:55:14;25.60;39.10
51613;DHT22;37694;51.748;14.326;2023-04-09T12:57:44;25.60;39.00
51613;DHT22;37694;51.748;14.326;2023-04-09T13:00:11;25.70;39.10
51613;DHT22;37694;51.748;14.326;2023-04-09T13:02:38;25.60;39.00
51613;DHT22;37694;51.748;14.326;2023-04-09T13:05:03;25.60;39.00
51613;DHT22;37694;51.748;14.326;2023-04-09T13:07:29;25.60;39.00
51613;DHT22;37694;51.748;14.326;2023-04-09T13:09:56;25.60;39.00
51613;DHT22;37694;51.748;14.326;2023-04-09T13:12:21;25.60;39.00
51613;DHT22;37694;51.748;14.326;2023-04-09T13:14:47;25.60;39.00
51613;DHT22;37694;51.748;14.326;2023-04-09T13:17:14;25.60;39.00
51613;DHT22;37694;51.748;14.326;2023-04-09T13:19:39;25.60;39.00
51613;DHT22;37694;51.748;14.326;2023-04-09T13:22:05;25.60;39.00
51613;DHT22;37694;51.748;14.326;2023-04-09T13:24:34;25.60;38.90
51613;DHT22;37694;51.748;14.326;2023-04-09T13:27:01;25.60;38.90
51613;DHT22;37694;51.748;14.326;2023-04-09T13:29:26;25.60;38.80
51613;DHT22;37694;51.748;14.326;2023-04-09T13:31:54;25.60;38.80
51613;DHT22;37694;51.748;14.326;2023-04-09T13:34:21;25.60;38.80
51613;DHT22;37694;51.748;14.326;2023-04-09T13:36:47;25.50;38.80
51613;DHT22;37694;51.748;14.326;2023-04-09T13:39:13;25.60;38.90
51613;DHT22;37694;51.748;14.326;2023-04-09T13:41:38;25.50;38.80
51613;DHT22;37694;51.748;14.326;2023-04-09T13:44:05;25.50;38.80
51613;DHT22;37694;51.748;14.326;2023-04-09T13:46:30;25.50;38.80
51613;DHT22;37694;51.748;14.326;2023-04-09T13:48:56;25.50;38.80
51613;DHT22;37694;51.748;14.326;2023-04-09T13:51:22;25.50;38.80
51613;DHT22;37694;51.748;14.326;2023-04-09T13:53:48;25.50;38.90
51613;DHT22;37694;51.748;14.326;2023-04-09T13:56:14;25.40;38.80
51613;DHT22;37694;51.748;14.326;2023-04-09T13:58:40;25.40;38.90
51613;DHT22;37694;51.748;14.326;2023-04-09T14:01:08;25.40;38.80
51613;DHT22;37694;51.748;14.326;2023-04-09T14:03:33;25.40;38.90
51613;DHT22;37694;51.748;14.326;2023-04-09T14:05:59;25.40;38.80
51613;DHT22;37694;51.748;14.326;2023-04-09T14:08:26;25.40;38.80
51613;DHT22;37694;51.748;14.326;2023-04-09T14:10:51;25.30;38.90
51613;DHT22;37694;51.748;14.326;2023-04-09T14:13:17;25.30;38.80
51613;DHT22;37694;51.748;14.326;2023-04-09T14:15:43;25.40;38.90
51613;DHT22;37694;51.748;14.326;2023-04-09T14:18:10;25.30;38.80
51613;DHT22;37694;51.748;14.326;2023-04-09T14:20:36;25.30;38.80
51613;DHT22;37694;51.748;14.326;2023-04-09T14:23:02;25.30;38.80
51613;DHT22;37694;51.748;14.326;2023-04-09T14:25:28;25.30;38.80
51613;DHT22;37694;51.748;14.326;2023-04-09T14:27:54;25.30;38.90
51613;DHT22;37694;51.748;14.326;2023-04-09T14:30:19;25.30;38.90
51613;DHT22;37694;51.748;14.326;2023-04-09T14:32:45;25.20;38.80
51613;DHT22;37694;51.748;14.326;2023-04-09T14:35:11;25.20;38.80
51613;DHT22;37694;51.748;14.326;2023-04-09T14:37:36;25.20;38.80
51613;DHT22;37694;51.748;14.326;2023-04-09T14:40:06;25.20;38.90
51613;DHT22;37694;51.748;14.326;2023-04-09T14:42:32;25.20;38.80
51613;DHT22;37694;51.748;14.326;2023-04-09T14:44:57;25.20;38.90
51613;DHT22;37694;51.748;14.326;2023-04-09T14:47:23;25.20;39.00
51613;DHT22;37694;51.748;14.326;2023-04-09T14:49:49;25.10;38.80
51613;DHT22;37694;51.748;14.326;2023-04-09T14:52:14;25.10;38.80
51613;DHT22;37694;51.748;14.326;2023-04-09T14:54:40;25.10;38.80
51613;DHT22;37694;51.748;14.326;2023-04-09T14:57:06;25.10;38.80
51613;DHT22;37694;51.748;14.326;2023-04-09T14:59:32;25.10;38.80
51613;DHT22;37694;51.748;14.326;2023-04-09T15:01:58;25.10;39.80
51613;DHT22;37694;51.748;14.326;2023-04-09T15:04:24;25.10;38.80
51613;DHT22;37694;51.748;14.326;2023-04-09T15:06:49;25.10;38.80
51613;DHT22;37694;51.748;14.326;2023-04-09T15:09:15;25.00;38.90
51613;DHT22;37694;51.748;14.326;2023-04-09T15:11:41;25.00;38.90
51613;DHT22;37694;51.748;14.326;2023-04-09T15:14:08;25.00;38.90
51613;DHT22;37694;51.748;14.326;2023-04-09T15:16:34;25.00;38.90
51613;DHT22;37694;51.748;14.326;2023-04-09T15:19:02;25.00;38.80
51613;DHT22;37694;51.748;14.326;2023-04-09T15:21:28;25.00;38.90
51613;DHT22;37694;51.748;14.326;2023-04-09T15:23:54;24.90;38.80
51613;DHT22;37694;51.748;14.326;2023-04-09T15:26:22;24.90;38.80
51613;DHT22;37694;51.748;14.326;2023-04-09T15:28:48;24.90;38.90
51613;DHT22;37694;51.748;14.326;2023-04-09T15:31:13;24.90;38.80
51613;DHT22;37694;51.748;14.326;2023-04-09T15:33:41;24.90;38.90
51613;DHT22;37694;51.748;14.326;2023-04-09T15:36:08;24.90;38.80